Time;durP1;ratioP1;P1;durP2;ratioP2;P2;SDS_P1;SDS_P2;PMS_P1;PMS_P2;Temp;Humidity;BMP_temperature;BMP_pressure;BME280_temperature;BME280_humidity;BME280_pressure;Samples;Min_cycle;Max_cycle;Signal;HPM_P1;HPM_P2
2023/08/12 00:00:20;;;;;;;4.20;3.80;;;;;;;;;;5038541;28;20184;-80
2023/08/12 00:02:47;;;;;;;5.17;3.73;;;;;;;;;;5037800;28;20189;-80
2023/08/12 00:05:13;;;;;;;4.10;3.80;;;;;;;;;;5025448;28;20221;-80
2023/08/12 00:07:43;;;;;;;4.70;3.90;;;;;;;;;;5027984;28;20199;-80
2023/08/12 00:10:11;;;;;;;4.93;3.90;;;;;;;;;;5012059;28;20554;-80
2023/08/12 00:12:37;;;;;;;4.80;3.80;;;;;;;;;;5039137;28;20174;-80
2023/08/12 00:15:06;;;;;;;4.57;4.10;;;;;;;;;;5021955;28;20652;-80
2023/08/12 00:17:33;;;;;;;4.97;3.93;;;;;;;;;;5037937;28;20217;-80
2023/08/12 00:19:59;;;;;;;5.47;3.47;;;;;;;;;;5013080;28;20552;-80
2023/08/12 00:22:26;;;;;;;5.20;3.93;;;;;;;;;;5033114;28;20202;-80
2023/08/12 00:24:52;;;;;;;4.07;3.67;;;;;;;;;;5011407;28;20206;-80
2023/08/12 00:27:18;;;;;;;4.53;3.83;;;;;;;;;;5027675;28;20202;-80
2023/08/12 00:29:44;;;;;;;4.37;3.80;;;;;;;;;;5035903;28;20191;-80
2023/08/12 00:32:11;;;;;;;4.43;4.03;;;;;;;;;;5034561;28;20680;-80
2023/08/12 00:34:37;;;;;;;4.70;3.90;;;;;;;;;;5034640;28;20192;-80
2023/08/12 00:37:04;;;;;;;3.90;3.50;;;;;;;;;;5038109;28;20186;-80
2023/08/12 00:39:31;;;;;;;5.60;3.40;;;;;;;;;;5076504;22;20283;-73
2023/08/12 00:41:57;;;;;;;4.77;3.60;;;;;;;;;;5047945;28;20177;-73
2023/08/12 00:44:23;;;;;;;4.03;3.63;;;;;;;;;;5042753;28;20210;-73
2023/08/12 00:46:50;;;;;;;4.90;4.00;;;;;;;;;;5063419;28;20215;-74
2023/08/12 00:49:16;;;;;;;4.37;3.50;;;;;;;;;;5048054;28;20205;-73
2023/08/12 00:51:45;;;;;;;5.93;3.87;;;;;;;;;;5057743;28;20581;-73
2023/08/12 00:54:13;;;;;;;4.60;3.60;;;;;;;;;;5064144;28;20177;-73
2023/08/12 00:56:40;;;;;;;5.83;4.20;;;;;;;;;;5061668;28;20189;-73
2023/08/12 00:59:07;;;;;;;5.57;3.40;;;;;;;;;;5047682;28;20202;-73
2023/08/12 01:01:34;;;;;;;4.43;4.03;;;;;;;;;;5049342;28;20322;-73
2023/08/12 01:04:00;;;;;;;4.00;3.53;;;;;;;;;;5033670;28;20173;-73
2023/08/12 01:06:26;;;;;;;3.83;3.53;;;;;;;;;;5068084;28;20327;-73
2023/08/12 01:08:53;;;;;;;4.77;3.90;;;;;;;;;;5047938;28;20201;-73
2023/08/12 01:11:28;;;;;;;3.93;3.63;;;;;;;;;;5049931;28;20587;-73
2023/08/12 01:14:01;;;;;;;5.70;4.00;;;;;;;;;;5067095;28;20263;-73
2023/08/12 01:16:29;;;;;;;5.77;4.10;;;;;;;;;;5067650;28;20629;-74
2023/08/12 01:18:56;;;;;;;4.27;3.80;;;;;;;;;;5067657;28;20208;-73
2023/08/12 01:21:25;;;;;;;4.20;3.80;;;;;;;;;;5067996;28;20189;-73
2023/08/12 01:23:51;;;;;;;4.87;4.20;;;;;;;;;;5065389;28;20208;-73
2023/08/12 01:26:17;;;;;;;4.20;3.80;;;;;;;;;;5033216;28;20216;-73
2023/08/12 01:28:43;;;;;;;5.47;3.77;;;;;;;;;;5050237;28;20201;-73
2023/08/12 01:31:12;;;;;;;4.87;4.37;;;;;;;;;;5051447;28;20775;-73
2023/08/12 01:33:50;;;;;;;4.70;3.90;;;;;;;;;;5031423;28;20181;-73
2023/08/12 01:36:17;;;;;;;4.50;4.10;;;;;;;;;;5049092;28;20451;-73
2023/08/12 01:38:43;;;;;;;7.17;4.47;;;;;;;;;;5064559;28;20244;-73
2023/08/12 01:41:12;;;;;;;4.93;4.43;;;;;;;;;;5067137;28;21332;-73
2023/08/12 01:43:38;;;;;;;6.10;4.73;;;;;;;;;;5032498;28;20264;-74
2023/08/12 01:46:04;;;;;;;5.83;4.43;;;;;;;;;;5050263;28;20242;-74
2023/08/12 01:48:31;;;;;;;4.83;4.43;;;;;;;;;;5048928;28;20687;-75
2023/08/12 01:50:57;;;;;;;7.53;4.60;;;;;;;;;;5049727;28;20260;-75
2023/08/12 01:53:23;;;;;;;4.87;4.47;;;;;;;;;;5048372;28;20225;-75
2023/08/12 01:55:51;;;;;;;5.20;4.70;;;;;;;;;;5049093;28;20181;-75
2023/08/12 01:58:17;;;;;;;6.07;4.57;;;;;;;;;;5050482;28;20631;-74
2023/08/12 02:00:43;;;;;;;5.17;4.67;;;;;;;;;;5054166;28;20261;-75
2023/08/12 02:03:10;;;;;;;5.23;4.73;;;;;;;;;;5072989;28;20185;-75
2023/08/12 02:05:40;;;;;;;7.50;5.07;;;;;;;;;;5021569;28;20209;-75
2023/08/12 02:08:07;;;;;;;5.10;4.60;;;;;;;;;;5070639;28;20250;-75
2023/08/12 02:10:35;;;;;;;6.13;4.50;;;;;;;;;;5062062;28;20238;-75
2023/08/12 02:13:02;;;;;;;5.60;4.80;;;;;;;;;;5058753;28;20234;-75
2023/08/12 02:15:29;;;;;;;6.67;4.47;;;;;;;;;;5069344;28;20385;-75
2023/08/12 02:17:55;;;;;;;4.70;4.17;;;;;;;;;;5050085;28;20205;-75
2023/08/12 02:20:21;;;;;;;4.50;4.10;;;;;;;;;;5070168;28;20197;-75
2023/08/12 02:22:47;;;;;;;6.37;4.40;;;;;;;;;;5071522;28;20173;-75
2023/08/12 02:25:13;;;;;;;5.40;4.30;;;;;;;;;;5054414;28;20206;-75
2023/08/12 02:27:39;;;;;;;4.17;3.77;;;;;;;;;;5073043;28;20192;-75
2023/08/12 02:30:06;;;;;;;4.07;3.77;;;;;;;;;;5074615;28;20192;-75
2023/08/12 02:32:32;;;;;;;5.43;4.40;;;;;;;;;;5052578;28;20185;-75
2023/08/12 02:34:58;;;;;;;4.70;4.30;;;;;;;;;;5050314;28;20547;-75
2023/08/12 02:37:24;;;;;;;4.70;4.03;;;;;;;;;;5036332;28;20195;-75
2023/08/12 02:39:51;;;;;;;5.33;4.50;;;;;;;;;;5051947;28;20214;-75
2023/08/12 02:42:17;;;;;;;4.80;4.30;;;;;;;;;;5071113;28;20247;-75
2023/08/12 02:44:43;;;;;;;6.00;4.07;;;;;;;;;;5070848;28;20259;-75
2023/08/12 02:47:09;;;;;;;4.53;4.13;;;;;;;;;;5070021;28;20189;-75
2023/08/12 02:49:35;;;;;;;4.77;3.90;;;;;;;;;;5052489;28;20209;-75
2023/08/12 02:52:02;;;;;;;5.13;4.37;;;;;;;;;;5071637;28;20217;-75
2023/08/12 02:54:29;;;;;;;5.40;3.80;;;;;;;;;;5069128;28;20286;-75
2023/08/12 02:56:55;;;;;;;4.83;4.30;;;;;;;;;;5069585;28;20189;-75
2023/08/12 02:59:21;;;;;;;4.77;4.27;;;;;;;;;;5052873;28;20201;-75
2023/08/12 03:01:47;;;;;;;4.70;4.30;;;;;;;;;;5036949;28;20220;-75
2023/08/12 03:04:13;;;;;;;5.20;4.40;;;;;;;;;;5050379;28;20332;-75
2023/08/12 03:06:39;;;;;;;4.97;4.47;;;;;;;;;;5063022;28;20222;-75
2023/08/12 03:09:06;;;;;;;5.60;5.10;;;;;;;;;;5051331;28;20535;-75
2023/08/12 03:11:32;;;;;;;5.63;5.07;;;;;;;;;;5034831;28;20679;-75
2023/08/12 03:14:00;;;;;;;5.00;4.50;;;;;;;;;;5051560;28;20181;-75
2023/08/12 03:16:27;;;;;;;6.60;4.80;;;;;;;;;;5034399;28;20683;-75
2023/08/12 03:18:53;;;;;;;6.50;4.77;;;;;;;;;;5053431;28;20201;-75
2023/08/12 03:21:19;;;;;;;5.67;4.80;;;;;;;;;;5068046;28;20243;-75
2023/08/12 03:23:47;;;;;;;6.87;5.00;;;;;;;;;;5050536;28;20193;-75
2023/08/12 03:26:14;;;;;;;6.87;4.80;;;;;;;;;;5042871;28;20213;-75
2023/08/12 03:28:41;;;;;;;4.80;4.40;;;;;;;;;;5048519;28;20201;-75
2023/08/12 03:31:08;;;;;;;4.87;4.30;;;;;;;;;;5052851;28;20251;-75
2023/08/12 03:33:35;;;;;;;4.67;4.20;;;;;;;;;;5051115;28;20177;-75
2023/08/12 03:36:02;;;;;;;5.10;4.37;;;;;;;;;;5055040;28;20239;-75
2023/08/12 03:38:28;;;;;;;4.90;4.50;;;;;;;;;;5036713;28;20217;-75
2023/08/12 03:40:55;;;;;;;5.67;5.07;;;;;;;;;;5053627;28;20187;-75
2023/08/12 03:43:21;;;;;;;4.80;4.30;;;;;;;;;;5035258;28;20529;-74
2023/08/12 03:45:48;;;;;;;6.20;5.07;;;;;;;;;;5036459;28;20259;-75
2023/08/12 03:48:17;;;;;;;7.80;5.17;;;;;;;;;;5051875;28;20205;-75
2023/08/12 03:50:45;;;;;;;5.13;4.63;;;;;;;;;;5069106;28;20255;-75
2023/08/12 03:53:11;;;;;;;7.70;5.07;;;;;;;;;;5052230;28;20193;-75
2023/08/12 03:55:39;;;;;;;5.00;4.60;;;;;;;;;;5070418;28;20177;-75
2023/08/12 03:58:06;;;;;;;5.60;5.10;;;;;;;;;;5052626;28;20197;-75
2023/08/12 04:00:32;;;;;;;5.30;4.80;;;;;;;;;;5050305;28;20567;-75
2023/08/12 04:03:01;;;;;;;6.33;5.03;;;;;;;;;;5051116;28;21115;-75
2023/08/12 04:05:27;;;;;;;5.60;5.03;;;;;;;;;;5057672;28;20296;-75
2023/08/12 04:07:53;;;;;;;7.33;5.30;;;;;;;;;;5067575;28;20193;-75
2023/08/12 04:10:20;;;;;;;6.00;4.50;;;;;;;;;;5064775;28;20220;-75
2023/08/12 04:12:46;;;;;;;6.03;5.13;;;;;;;;;;5045633;28;20226;-76
2023/08/12 04:15:12;;;;;;;5.50;4.90;;;;;;;;;;5068466;28;20632;-75
2023/08/12 04:17:40;;;;;;;5.57;5.00;;;;;;;;;;5034217;28;20236;-75
2023/08/12 04:20:07;;;;;;;5.33;4.50;;;;;;;;;;5050353;28;20181;-75
2023/08/12 04:22:35;;;;;;;6.30;4.60;;;;;;;;;;5018755;28;20805;-75
2023/08/12 04:25:02;;;;;;;5.70;5.20;;;;;;;;;;5052123;28;20240;-75
2023/08/12 04:27:29;;;;;;;5.53;5.03;;;;;;;;;;5048566;28;20451;-75
2023/08/12 04:29:55;;;;;;;6.37;5.23;;;;;;;;;;5050351;28;20606;-75
2023/08/12 04:32:22;;;;;;;5.50;5.00;;;;;;;;;;5035424;28;20268;-75
2023/08/12 04:34:49;;;;;;;6.80;5.10;;;;;;;;;;5036181;28;20177;-75
2023/08/12 04:37:15;;;;;;;6.57;5.10;;;;;;;;;;5036176;28;20274;-75
2023/08/12 04:39:43;;;;;;;5.70;5.10;;;;;;;;;;5051861;28;20224;-75
2023/08/12 04:42:10;;;;;;;8.67;5.50;;;;;;;;;;5050524;28;20242;-75
2023/08/12 04:44:37;;;;;;;5.97;5.37;;;;;;;;;;5035481;28;20642;-75
2023/08/12 04:47:03;;;;;;;5.40;4.90;;;;;;;;;;5049965;28;20307;-75
2023/08/12 04:49:31;;;;;;;4.93;4.30;;;;;;;;;;5050017;28;20205;-75
2023/08/12 04:51:58;;;;;;;5.77;5.00;;;;;;;;;;5032993;28;20184;-75
2023/08/12 04:54:24;;;;;;;6.83;5.07;;;;;;;;;;5051879;28;20181;-75
2023/08/12 04:56:51;;;;;;;5.67;5.03;;;;;;;;;;5049150;28;20264;-75
2023/08/12 04:59:18;;;;;;;5.40;4.87;;;;;;;;;;5048013;28;20201;-75
2023/08/12 05:01:44;;;;;;;7.00;5.00;;;;;;;;;;5050818;28;20187;-75
2023/08/12 05:04:10;;;;;;;6.53;5.03;;;;;;;;;;5033258;28;20276;-75
2023/08/12 05:06:37;;;;;;;6.07;5.47;;;;;;;;;;5032954;28;20208;-75
2023/08/12 05:09:03;;;;;;;4.90;4.40;;;;;;;;;;5050958;28;20705;-75
2023/08/12 05:11:30;;;;;;;5.33;4.83;;;;;;;;;;5049511;28;20673;-75
2023/08/12 05:13:57;;;;;;;6.13;4.93;;;;;;;;;;5051384;28;20185;-75
2023/08/12 05:16:23;;;;;;;4.97;4.53;;;;;;;;;;5065715;28;20254;-75
2023/08/12 05:18:49;;;;;;;5.47;4.93;;;;;;;;;;5066950;28;20209;-74
2023/08/12 05:21:16;;;;;;;5.30;4.80;;;;;;;;;;5049686;28;20189;-75
2023/08/12 05:23:42;;;;;;;6.30;5.10;;;;;;;;;;5055096;28;20189;-75
2023/08/12 05:26:08;;;;;;;5.93;5.10;;;;;;;;;;5049255;28;20213;-75
2023/08/12 05:28:34;;;;;;;5.40;4.80;;;;;;;;;;5067267;28;20371;-75
2023/08/12 05:31:00;;;;;;;6.77;6.07;;;;;;;;;;5066194;28;20202;-75
2023/08/12 05:33:27;;;;;;;6.53;5.53;;;;;;;;;;5070078;28;20290;-75
2023/08/12 05:35:54;;;;;;;5.57;4.63;;;;;;;;;;5073097;28;20215;-75
2023/08/12 05:38:20;;;;;;;7.50;5.33;;;;;;;;;;5074584;28;20235;-75
2023/08/12 05:40:46;;;;;;;5.90;4.90;;;;;;;;;;5074071;28;20616;-75
2023/08/12 05:43:12;;;;;;;6.80;5.83;;;;;;;;;;5075487;28;20188;-75
2023/08/12 05:45:38;;;;;;;6.20;5.60;;;;;;;;;;5075263;28;20241;-75
2023/08/12 05:48:06;;;;;;;6.70;6.00;;;;;;;;;;5021194;28;20193;-75
2023/08/12 05:50:32;;;;;;;6.50;5.67;;;;;;;;;;5070721;28;20636;-75
2023/08/12 05:52:58;;;;;;;7.23;5.80;;;;;;;;;;5056786;28;20231;-75
2023/08/12 05:55:24;;;;;;;6.73;5.63;;;;;;;;;;5075228;28;20230;-75
2023/08/12 05:57:50;;;;;;;8.83;5.90;;;;;;;;;;5040793;28;20543;-75
2023/08/12 06:00:16;;;;;;;7.77;5.70;;;;;;;;;;5071404;28;20177;-75
2023/08/12 06:02:42;;;;;;;5.73;5.23;;;;;;;;;;5076759;28;20706;-75
2023/08/12 06:05:09;;;;;;;5.97;5.37;;;;;;;;;;5058622;28;20307;-75
2023/08/12 06:07:35;;;;;;;5.90;5.27;;;;;;;;;;5073739;28;20173;-75
2023/08/12 06:10:01;;;;;;;5.80;5.20;;;;;;;;;;5072986;28;20204;-75
2023/08/12 06:12:28;;;;;;;6.17;5.57;;;;;;;;;;5073500;28;20294;-75
2023/08/12 06:14:54;;;;;;;7.10;6.00;;;;;;;;;;5073489;28;20181;-75
2023/08/12 06:17:20;;;;;;;6.63;6.03;;;;;;;;;;5066636;28;20227;-75
2023/08/12 06:19:46;;;;;;;6.37;5.77;;;;;;;;;;5057004;28;20246;-79
2023/08/12 06:22:12;;;;;;;8.67;6.10;;;;;;;;;;5076208;28;20197;-78
2023/08/12 06:24:38;;;;;;;6.80;6.20;;;;;;;;;;5055203;28;20201;-77
2023/08/12 06:27:04;;;;;;;6.30;5.70;;;;;;;;;;5071361;28;20274;-78
2023/08/12 06:29:30;;;;;;;7.83;5.60;;;;;;;;;;5055390;28;20204;-77
2023/08/12 06:31:56;;;;;;;6.50;5.27;;;;;;;;;;5075638;28;20184;-75
2023/08/12 06:34:23;;;;;;;6.47;5.63;;;;;;;;;;5055966;28;20211;-73
2023/08/12 06:36:49;;;;;;;6.47;5.50;;;;;;;;;;5070103;28;20246;-75
2023/08/12 06:39:15;;;;;;;8.43;5.40;;;;;;;;;;5090832;22;20819;-73
2023/08/12 06:41:41;;;;;;;6.97;5.63;;;;;;;;;;5057564;28;20692;-72
2023/08/12 06:44:07;;;;;;;6.10;5.60;;;;;;;;;;5073388;28;20174;-71
2023/08/12 06:46:33;;;;;;;5.90;5.30;;;;;;;;;;5051016;28;20315;-74
2023/08/12 06:48:59;;;;;;;8.63;5.27;;;;;;;;;;5069876;28;20194;-78
2023/08/12 06:51:25;;;;;;;5.03;4.53;;;;;;;;;;5047771;28;20186;-77
2023/08/12 06:53:51;;;;;;;7.90;5.20;;;;;;;;;;5069136;28;20859;-78
2023/08/12 06:56:18;;;;;;;5.30;4.80;;;;;;;;;;5070653;28;20185;-78
2023/08/12 06:58:44;;;;;;;5.60;4.70;;;;;;;;;;5051708;28;20198;-77
2023/08/12 07:01:10;;;;;;;5.80;4.90;;;;;;;;;;5054391;28;20189;-77
2023/08/12 07:03:36;;;;;;;10.67;5.97;;;;;;;;;;5066003;28;20651;-77
2023/08/12 07:06:02;;;;;;;6.83;5.10;;;;;;;;;;5015764;28;20310;-78
2023/08/12 07:08:28;;;;;;;5.60;5.10;;;;;;;;;;5065847;28;20237;-79
2023/08/12 07:10:54;;;;;;;6.57;5.20;;;;;;;;;;5071829;28;20175;-78
2023/08/12 07:13:21;;;;;;;5.57;5.07;;;;;;;;;;5053952;28;20258;-78
2023/08/12 07:15:47;;;;;;;6.00;5.40;;;;;;;;;;5072203;28;20202;-79
2023/08/12 07:18:13;;;;;;;6.67;5.43;;;;;;;;;;5066072;28;20225;-81
2023/08/12 07:20:39;;;;;;;6.37;5.73;;;;;;;;;;5034223;28;20298;-79
2023/08/12 07:23:05;;;;;;;5.63;5.13;;;;;;;;;;5048234;28;20297;-78
2023/08/12 07:25:31;;;;;;;5.90;5.07;;;;;;;;;;5046972;28;20224;-78
2023/08/12 07:27:58;;;;;;;6.17;5.47;;;;;;;;;;5066043;28;20669;-78
2023/08/12 07:30:24;;;;;;;6.60;5.30;;;;;;;;;;5053623;28;20251;-78
2023/08/12 07:32:50;;;;;;;5.87;5.33;;;;;;;;;;5053694;28;20195;-78
2023/08/12 07:35:16;;;;;;;10.33;5.53;;;;;;;;;;5067758;28;20186;-77
2023/08/12 07:37:43;;;;;;;6.53;5.20;;;;;;;;;;5053641;28;20237;-79
2023/08/12 07:40:09;;;;;;;6.80;5.83;;;;;;;;;;5072471;28;20232;-76
2023/08/12 07:42:35;;;;;;;6.53;5.87;;;;;;;;;;5052901;28;20545;-79
2023/08/12 07:45:01;;;;;;;8.47;5.30;;;;;;;;;;5053166;28;20680;-80
2023/08/12 07:47:28;;;;;;;6.33;5.70;;;;;;;;;;5051408;28;20187;-79
2023/08/12 07:49:54;;;;;;;7.03;5.93;;;;;;;;;;5048658;28;20225;-78
2023/08/12 07:52:20;;;;;;;7.97;5.77;;;;;;;;;;5038204;28;20188;-78
2023/08/12 07:54:46;;;;;;;7.07;6.37;;;;;;;;;;5050275;28;20187;-79
2023/08/12 07:57:12;;;;;;;10.40;6.70;;;;;;;;;;5068924;28;20256;-79
2023/08/12 07:59:39;;;;;;;7.97;6.53;;;;;;;;;;5071630;28;20208;-80
2023/08/12 08:02:05;;;;;;;7.03;6.43;;;;;;;;;;5071552;28;20181;-78
2023/08/12 08:04:31;;;;;;;7.30;6.50;;;;;;;;;;5070541;28;20196;-78
2023/08/12 08:06:57;;;;;;;6.17;5.57;;;;;;;;;;5049876;28;20190;-78
2023/08/12 08:09:24;;;;;;;9.00;6.30;;;;;;;;;;5069872;28;20280;-78
2023/08/12 08:11:50;;;;;;;8.50;6.60;;;;;;;;;;5052656;28;20202;-78
2023/08/12 08:14:16;;;;;;;8.43;6.67;;;;;;;;;;5069765;28;20270;-78
2023/08/12 08:16:42;;;;;;;7.00;6.23;;;;;;;;;;5052438;28;20266;-78
2023/08/12 08:19:09;;;;;;;6.53;5.93;;;;;;;;;;5070789;28;20224;-78
2023/08/12 08:21:36;;;;;;;7.33;6.63;;;;;;;;;;5068239;28;20278;-78
2023/08/12 08:24:02;;;;;;;6.47;5.80;;;;;;;;;;5070489;28;20737;-78
2023/08/12 08:26:28;;;;;;;6.30;5.70;;;;;;;;;;5066735;28;20210;-78
2023/08/12 08:28:54;;;;;;;6.93;6.03;;;;;;;;;;5070833;28;20189;-78
2023/08/12 08:31:20;;;;;;;7.00;6.10;;;;;;;;;;5051869;28;20555;-78
2023/08/12 08:33:47;;;;;;;5.70;5.20;;;;;;;;;;5070167;28;20180;-78
2023/08/12 08:36:13;;;;;;;6.87;6.17;;;;;;;;;;5068103;28;20191;-78
2023/08/12 08:38:39;;;;;;;7.67;5.90;;;;;;;;;;5060986;28;20201;-78
2023/08/12 08:41:06;;;;;;;6.57;5.83;;;;;;;;;;5051718;28;20563;-78
2023/08/12 08:43:33;;;;;;;6.87;6.23;;;;;;;;;;5064510;28;20180;-78
2023/08/12 08:46:00;;;;;;;7.77;6.67;;;;;;;;;;5034716;28;20281;-78
2023/08/12 08:48:26;;;;;;;7.13;6.37;;;;;;;;;;5051247;28;20278;-77
2023/08/12 08:50:53;;;;;;;8.00;6.60;;;;;;;;;;5069049;28;20173;-77
2023/08/12 08:53:20;;;;;;;7.40;6.63;;;;;;;;;;5051077;28;20186;-76
2023/08/12 08:55:46;;;;;;;8.00;7.20;;;;;;;;;;5070039;28;20235;-76
2023/08/12 08:58:13;;;;;;;7.60;6.80;;;;;;;;;;5031230;28;20192;-76
2023/08/12 09:00:39;;;;;;;6.83;6.20;;;;;;;;;;5051422;28;20236;-76
2023/08/12 09:03:06;;;;;;;6.50;5.90;;;;;;;;;;5068637;28;20274;-76
2023/08/12 09:05:33;;;;;;;6.13;5.60;;;;;;;;;;5067915;28;20223;-76
2023/08/12 09:08:00;;;;;;;6.23;5.70;;;;;;;;;;5033417;28;20178;-76
2023/08/12 09:10:27;;;;;;;6.70;6.10;;;;;;;;;;5068908;28;20726;-77
2023/08/12 09:12:55;;;;;;;6.57;5.50;;;;;;;;;;5069538;28;20173;-76
2023/08/12 09:15:21;;;;;;;7.83;6.47;;;;;;;;;;5068846;28;20193;-77
2023/08/12 09:17:47;;;;;;;6.70;6.00;;;;;;;;;;5050819;28;20227;-76
2023/08/12 09:20:14;;;;;;;7.17;6.50;;;;;;;;;;5068616;28;20208;-76
2023/08/12 09:22:41;;;;;;;6.70;6.00;;;;;;;;;;5064198;28;20188;-76
2023/08/12 09:25:08;;;;;;;6.03;5.13;;;;;;;;;;5069053;28;20300;-76
2023/08/12 09:27:36;;;;;;;6.47;5.87;;;;;;;;;;5068301;28;20572;-76
2023/08/12 09:30:03;;;;;;;6.17;5.57;;;;;;;;;;5070002;28;20207;-76
2023/08/12 09:32:30;;;;;;;6.00;5.27;;;;;;;;;;5034181;28;20190;-76
2023/08/12 09:34:56;;;;;;;5.60;5.00;;;;;;;;;;5032741;28;20186;-76
2023/08/12 09:37:23;;;;;;;7.13;5.30;;;;;;;;;;5045970;28;20284;-76
2023/08/12 09:39:50;;;;;;;6.30;5.70;;;;;;;;;;5068348;28;20209;-76
2023/08/12 09:42:17;;;;;;;5.63;5.00;;;;;;;;;;5031086;28;20713;-76
2023/08/12 09:44:44;;;;;;;9.00;5.43;;;;;;;;;;5051840;28;20671;-76
2023/08/12 09:47:10;;;;;;;7.97;6.00;;;;;;;;;;5051310;28;20190;-76
2023/08/12 09:49:37;;;;;;;6.50;5.90;;;;;;;;;;5068600;28;20225;-76
2023/08/12 09:52:04;;;;;;;6.37;5.73;;;;;;;;;;5069257;28;20200;-76
2023/08/12 09:54:34;;;;;;;6.50;5.43;;;;;;;;;;5015783;28;20218;-77
2023/08/12 09:57:01;;;;;;;6.07;5.50;;;;;;;;;;5068165;28;20205;-80
2023/08/12 09:59:32;;;;;;;5.90;5.30;;;;;;;;;;5044074;28;20213;-78
2023/08/12 10:01:58;;;;;;;6.17;5.57;;;;;;;;;;5067363;28;20211;-78
2023/08/12 10:04:27;;;;;;;5.93;5.43;;;;;;;;;;5084648;28;20216;-79
2023/08/12 10:06:54;;;;;;;7.17;5.77;;;;;;;;;;5062414;28;20181;-78
2023/08/12 10:09:20;;;;;;;6.70;5.97;;;;;;;;;;5074576;28;20212;-79
2023/08/12 10:11:47;;;;;;;7.43;5.13;;;;;;;;;;5074428;28;20196;-79
2023/08/12 10:14:14;;;;;;;6.33;4.70;;;;;;;;;;5055006;28;20255;-79
2023/08/12 10:16:46;;;;;;;6.87;5.67;;;;;;;;;;5068718;28;20173;-80
2023/08/12 10:19:12;;;;;;;6.70;5.30;;;;;;;;;;5032427;28;20212;-79
2023/08/12 10:21:39;;;;;;;6.20;5.27;;;;;;;;;;5042256;28;20240;-80
2023/08/12 10:24:10;;;;;;;9.50;6.20;;;;;;;;;;5036188;28;20585;-80
2023/08/12 10:26:38;;;;;;;9.53;5.30;;;;;;;;;;5052009;28;20309;-79
2023/08/12 10:29:06;;;;;;;6.57;5.60;;;;;;;;;;5032419;28;20217;-79
2023/08/12 10:31:32;;;;;;;6.00;5.40;;;;;;;;;;5051338;28;20324;-80
2023/08/12 10:33:59;;;;;;;6.77;5.50;;;;;;;;;;5037254;28;20545;-77
2023/08/12 10:36:27;;;;;;;7.03;6.33;;;;;;;;;;5052543;28;20271;-77
2023/08/12 10:38:53;;;;;;;8.23;5.57;;;;;;;;;;5049835;28;20680;-80
2023/08/12 10:41:23;;;;;;;6.93;5.43;;;;;;;;;;5070498;28;20186;-76
2023/08/12 10:43:54;;;;;;;5.87;5.10;;;;;;;;;;5071635;28;20209;-74
2023/08/12 10:46:24;;;;;;;6.10;5.47;;;;;;;;;;5071575;28;20683;-75
2023/08/12 10:49:03;;;;;;;6.27;5.67;;;;;;;;;;5071326;28;20662;-75
2023/08/12 10:51:46;;;;;;;9.13;5.30;;;;;;;;;;5053138;28;20181;-80
2023/08/12 10:54:16;;;;;;;8.90;5.30;;;;;;;;;;5037843;28;20234;-76
2023/08/12 10:57:01;;;;;;;6.60;4.70;;;;;;;;;;5049735;28;20192;-75
2023/08/12 10:59:45;;;;;;;9.87;4.77;;;;;;;;;;5069445;28;20278;-73
2023/08/12 11:02:23;;;;;;;5.70;4.97;;;;;;;;;;5049882;28;20189;-73
2023/08/12 11:04:50;;;;;;;6.60;5.23;;;;;;;;;;5067239;28;20271;-73
2023/08/12 11:07:19;;;;;;;8.67;6.40;;;;;;;;;;5068322;28;20662;-73
2023/08/12 11:09:46;;;;;;;6.27;5.33;;;;;;;;;;5060868;28;20680;-73
2023/08/12 11:12:17;;;;;;;6.50;5.63;;;;;;;;;;5069458;28;20680;-73
2023/08/12 11:14:48;;;;;;;7.93;5.17;;;;;;;;;;5063676;28;20184;-73
2023/08/12 11:17:15;;;;;;;5.77;4.60;;;;;;;;;;5069667;28;20180;-73
2023/08/12 11:19:41;;;;;;;5.07;4.37;;;;;;;;;;5058773;28;20577;-73
2023/08/12 11:22:08;;;;;;;6.23;4.67;;;;;;;;;;5064694;28;20188;-73
2023/08/12 11:24:35;;;;;;;6.10;5.47;;;;;;;;;;5047030;28;20644;-73
2023/08/12 11:27:02;;;;;;;6.57;5.20;;;;;;;;;;5070011;28;20203;-73
2023/08/12 11:29:28;;;;;;;5.93;4.73;;;;;;;;;;5050034;28;20310;-73
2023/08/12 11:31:55;;;;;;;6.40;5.77;;;;;;;;;;5060563;28;20212;-72
2023/08/12 11:34:21;;;;;;;27.07;7.43;;;;;;;;;;5052758;28;20760;-75
2023/08/12 11:36:47;;;;;;;27.83;6.43;;;;;;;;;;5070867;28;20404;-74
2023/08/12 11:39:14;;;;;;;40.27;3.83;;;;;;;;;;5067360;28;20209;-78
2023/08/12 11:41:40;;;;;;;5.97;1.80;;;;;;;;;;5062637;28;20181;-75
2023/08/12 11:44:06;;;;;;;15.97;2.30;;;;;;;;;;5070547;28;20193;-74
2023/08/12 11:46:35;;;;;;;16.87;2.60;;;;;;;;;;5052209;28;20284;-75
2023/08/12 11:49:01;;;;;;;3.63;1.90;;;;;;;;;;5070426;28;20212;-71
2023/08/12 11:51:27;;;;;;;3.47;1.50;;;;;;;;;;5069068;28;20196;-72
2023/08/12 11:53:53;;;;;;;3.17;1.80;;;;;;;;;;5069469;28;20177;-75
2023/08/12 11:56:20;;;;;;;3.20;1.90;;;;;;;;;;5065839;28;20640;-76
2023/08/12 11:58:50;;;;;;;2.57;1.80;;;;;;;;;;5034286;28;20305;-75
2023/08/12 12:01:16;;;;;;;4.93;1.70;;;;;;;;;;5032841;28;20193;-76
2023/08/12 12:03:42;;;;;;;2.40;1.80;;;;;;;;;;5067670;28;20226;-75
2023/08/12 12:06:08;;;;;;;4.13;1.70;;;;;;;;;;5067975;28;20231;-78
2023/08/12 12:08:35;;;;;;;2.63;1.40;;;;;;;;;;5051373;28;20217;-75
2023/08/12 12:11:07;;;;;;;2.70;1.20;;;;;;;;;;5070638;28;20197;-75
2023/08/12 12:13:33;;;;;;;1.60;1.10;;;;;;;;;;5067100;28;20268;-75
2023/08/12 12:16:00;;;;;;;1.93;1.20;;;;;;;;;;5041000;28;20281;-75
2023/08/12 12:18:26;;;;;;;2.50;1.10;;;;;;;;;;5066432;28;20570;-76
2023/08/12 12:20:56;;;;;;;1.37;1.03;;;;;;;;;;5073292;28;20263;-76
2023/08/12 12:23:22;;;;;;;1.17;1.07;;;;;;;;;;5068216;28;20189;-76
2023/08/12 12:25:48;;;;;;;1.10;1.00;;;;;;;;;;5067784;28;20262;-76
2023/08/12 12:28:14;;;;;;;1.50;1.17;;;;;;;;;;5068948;28;20185;-75
2023/08/12 12:30:41;;;;;;;1.40;1.30;;;;;;;;;;5070189;28;20191;-76
2023/08/12 12:33:07;;;;;;;2.07;1.20;;;;;;;;;;5033835;28;20273;-76
2023/08/12 12:35:33;;;;;;;1.30;1.20;;;;;;;;;;5068361;28;20181;-76
2023/08/12 12:37:59;;;;;;;1.40;1.30;;;;;;;;;;5069047;28;20707;-76
2023/08/12 12:40:25;;;;;;;1.50;1.40;;;;;;;;;;5052249;23;20250;-79
2023/08/12 12:42:51;;;;;;;1.70;1.23;;;;;;;;;;5033539;28;20203;-79
2023/08/12 12:45:17;;;;;;;1.80;1.40;;;;;;;;;;5050275;28;20205;-79
2023/08/12 12:47:44;;;;;;;2.43;1.50;;;;;;;;;;5050831;28;20202;-79
2023/08/12 12:50:10;;;;;;;1.73;1.20;;;;;;;;;;5033422;28;20180;-79
2023/08/12 12:52:36;;;;;;;1.20;1.10;;;;;;;;;;5033733;28;20193;-79
2023/08/12 12:55:04;;;;;;;2.47;1.27;;;;;;;;;;5017166;28;20249;-79
2023/08/12 12:57:30;;;;;;;1.87;1.50;;;;;;;;;;5051445;28;20181;-79
2023/08/12 12:59:56;;;;;;;1.63;1.50;;;;;;;;;;5051737;28;20831;-79
2023/08/12 13:02:22;;;;;;;3.17;1.90;;;;;;;;;;5051749;28;20208;-78
2023/08/12 13:04:49;;;;;;;4.37;1.90;;;;;;;;;;5019249;28;20178;-78
2023/08/12 13:07:15;;;;;;;1.83;1.50;;;;;;;;;;5002533;28;20606;-79
2023/08/12 13:09:42;;;;;;;1.73;1.30;;;;;;;;;;5002770;28;20183;-79
2023/08/12 13:12:08;;;;;;;1.93;1.20;;;;;;;;;;5001984;28;20209;-78
2023/08/12 13:14:34;;;;;;;4.07;1.30;;;;;;;;;;5001825;28;21132;-78
2023/08/12 13:17:01;;;;;;;2.93;1.20;;;;;;;;;;5002458;28;20182;-78
2023/08/12 13:19:27;;;;;;;1.07;0.97;;;;;;;;;;4999086;28;20269;-78
2023/08/12 13:21:53;;;;;;;1.10;1.00;;;;;;;;;;4982159;28;20203;-81
2023/08/12 13:24:20;;;;;;;1.13;1.00;;;;;;;;;;4987828;28;20190;-78
2023/08/12 13:26:46;;;;;;;4.30;1.10;;;;;;;;;;4993123;28;20246;-80
2023/08/12 13:29:12;;;;;;;1.10;1.00;;;;;;;;;;4989805;28;20581;-76
2023/08/12 13:31:39;;;;;;;1.93;1.10;;;;;;;;;;5009508;28;20546;-76
2023/08/12 13:34:06;;;;;;;0.90;0.90;;;;;;;;;;4996374;28;20193;-76
2023/08/12 13:36:32;;;;;;;1.30;1.00;;;;;;;;;;5014898;28;20199;-75
2023/08/12 13:38:58;;;;;;;1.00;1.00;;;;;;;;;;5011740;28;20196;-76
2023/08/12 13:41:24;;;;;;;1.10;1.00;;;;;;;;;;5024479;28;20221;-76
2023/08/12 13:43:51;;;;;;;1.43;1.20;;;;;;;;;;5011557;28;20217;-76
2023/08/12 13:46:18;;;;;;;1.33;1.10;;;;;;;;;;4995430;28;20308;-76
2023/08/12 13:48:46;;;;;;;1.47;1.23;;;;;;;;;;4999330;28;20202;-76
2023/08/12 13:51:13;;;;;;;1.83;1.30;;;;;;;;;;5014066;28;20667;-76
2023/08/12 13:53:40;;;;;;;1.33;1.20;;;;;;;;;;4992468;28;20212;-76
2023/08/12 13:56:06;;;;;;;1.33;1.10;;;;;;;;;;4997424;28;20592;-76
2023/08/12 13:58:33;;;;;;;1.60;1.30;;;;;;;;;;4999946;28;20786;-76
2023/08/12 14:01:00;;;;;;;1.40;1.30;;;;;;;;;;5001986;28;20196;-77
2023/08/12 14:03:26;;;;;;;1.93;1.60;;;;;;;;;;5016653;28;20209;-76
2023/08/12 14:05:52;;;;;;;2.50;1.30;;;;;;;;;;5001614;28;20210;-76
2023/08/12 14:08:18;;;;;;;1.57;1.47;;;;;;;;;;4998120;28;20178;-76
2023/08/12 14:10:46;;;;;;;2.33;1.43;;;;;;;;;;5013774;28;20183;-76
2023/08/12 14:13:13;;;;;;;2.27;1.40;;;;;;;;;;5029446;28;20538;-76
2023/08/12 14:15:39;;;;;;;2.33;1.33;;;;;;;;;;5046649;28;20730;-82
2023/08/12 14:18:08;;;;;;;3.40;1.67;;;;;;;;;;5003914;28;20241;-76
2023/08/12 14:20:34;;;;;;;1.63;1.53;;;;;;;;;;5002827;28;20194;-76
2023/08/12 14:23:01;;;;;;;2.10;1.80;;;;;;;;;;5008054;28;20202;-76
2023/08/12 14:25:30;;;;;;;2.57;1.80;;;;;;;;;;5012856;28;20241;-76
2023/08/12 14:28:03;;;;;;;2.00;1.87;;;;;;;;;;5016155;28;20183;-77
2023/08/12 14:30:29;;;;;;;2.20;1.70;;;;;;;;;;5033285;28;20459;-76
2023/08/12 14:32:56;;;;;;;3.57;1.90;;;;;;;;;;4998320;28;20914;-76
2023/08/12 14:35:22;;;;;;;2.40;2.20;;;;;;;;;;4997329;28;20198;-76
2023/08/12 14:37:48;;;;;;;3.17;2.30;;;;;;;;;;4998254;28;20197;-76
2023/08/12 14:40:15;;;;;;;2.20;2.00;;;;;;;;;;4985677;28;20214;-76